sensor_id;sensor_type;location;lat;lon;timestamp;P1;durP1;ratioP1;P2;durP2;ratioP2
19329;SDS011;9799;48.214;16.388;2023-03-08T00:00:08;17.53;;;12.47;;
19329;SDS011;9799;48.214;16.388;2023-03-08T00:03:34;19.40;;;11.80;;
19329;SDS011;9799;48.214;16.388;2023-03-08T00:06:55;19.13;;;11.43;;
19329;SDS011;9799;48.214;16.388;2023-03-08T00:10:21;16.87;;;10.40;;
19329;SDS011;9799;48.214;16.388;2023-03-08T00:13:43;19.80;;;11.73;;
19329;SDS011;9799;48.214;16.388;2023-03-08T00:17:04;17.53;;;11.67;;
19329;SDS011;9799;48.214;16.388;2023-03-08T00:20:27;16.40;;;11.27;;
19329;SDS011;9799;48.214;16.388;2023-03-08T00:23:50;18.33;;;12.23;;
19329;SDS011;9799;48.214;16.388;2023-03-08T00:27:11;39.23;;;20.27;;
19329;SDS011;9799;48.214;16.388;2023-03-08T00:30:32;28.10;;;14.47;;
19329;SDS011;9799;48.214;16.388;2023-03-08T00:33:53;20.07;;;12.67;;
19329;SDS011;9799;48.214;16.388;2023-03-08T00:37:16;20.27;;;13.07;;
19329;SDS011;9799;48.214;16.388;2023-03-08T00:40:38;17.37;;;12.17;;
19329;SDS011;9799;48.214;16.388;2023-03-08T00:43:59;18.47;;;11.87;;
19329;SDS011;9799;48.214;16.388;2023-03-08T00:47:20;18.80;;;11.33;;
19329;SDS011;9799;48.214;16.388;2023-03-08T00:50:41;17.03;;;11.23;;
19329;SDS011;9799;48.214;16.388;2023-03-08T00:54:04;19.10;;;11.43;;
19329;SDS011;9799;48.214;16.388;2023-03-08T00:57:26;12.97;;;9.80;;
19329;SDS011;9799;48.214;16.388;2023-03-08T01:00:47;14.20;;;9.83;;
19329;SDS011;9799;48.214;16.388;2023-03-08T01:04:08;15.60;;;10.37;;
19329;SDS011;9799;48.214;16.388;2023-03-08T01:07:31;13.33;;;9.20;;
19329;SDS011;9799;48.214;16.388;2023-03-08T01:10:54;14.73;;;9.13;;
19329;SDS011;9799;48.214;16.388;2023-03-08T01:14:17;12.90;;;7.67;;
19329;SDS011;9799;48.214;16.388;2023-03-08T01:17:38;13.47;;;8.27;;
19329;SDS011;9799;48.214;16.388;2023-03-08T01:21:00;9.23;;;6.83;;
19329;SDS011;9799;48.214;16.388;2023-03-08T01:24:23;10.50;;;7.87;;
19329;SDS011;9799;48.214;16.388;2023-03-08T01:27:45;13.43;;;8.23;;
19329;SDS011;9799;48.214;16.388;2023-03-08T01:31:08;10.70;;;7.47;;
19329;SDS011;9799;48.214;16.388;2023-03-08T01:34:31;9.80;;;7.00;;
19329;SDS011;9799;48.214;16.388;2023-03-08T01:37:52;9.27;;;7.20;;
19329;SDS011;9799;48.214;16.388;2023-03-08T01:41:14;10.57;;;7.57;;
19329;SDS011;9799;48.214;16.388;2023-03-08T01:48:26;11.20;;;7.73;;
19329;SDS011;9799;48.214;16.388;2023-03-08T01:51:53;13.87;;;7.93;;
19329;SDS011;9799;48.214;16.388;2023-03-08T01:55:18;10.13;;;7.70;;
19329;SDS011;9799;48.214;16.388;2023-03-08T01:58:40;13.23;;;8.77;;
19329;SDS011;9799;48.214;16.388;2023-03-08T02:02:04;13.53;;;8.63;;
19329;SDS011;9799;48.214;16.388;2023-03-08T02:05:26;12.77;;;8.47;;
19329;SDS011;9799;48.214;16.388;2023-03-08T02:08:49;12.23;;;7.77;;
19329;SDS011;9799;48.214;16.388;2023-03-08T02:12:11;14.73;;;9.27;;
19329;SDS011;9799;48.214;16.388;2023-03-08T02:15:33;14.10;;;8.67;;
19329;SDS011;9799;48.214;16.388;2023-03-08T02:18:57;13.07;;;8.43;;
19329;SDS011;9799;48.214;16.388;2023-03-08T02:22:20;14.03;;;8.27;;
19329;SDS011;9799;48.214;16.388;2023-03-08T02:25:47;11.30;;;7.90;;
19329;SDS011;9799;48.214;16.388;2023-03-08T02:29:10;12.60;;;8.07;;
19329;SDS011;9799;48.214;16.388;2023-03-08T02:32:31;13.40;;;8.40;;
19329;SDS011;9799;48.214;16.388;2023-03-08T02:35:53;13.37;;;8.10;;
19329;SDS011;9799;48.214;16.388;2023-03-08T02:39:14;17.60;;;9.13;;
19329;SDS011;9799;48.214;16.388;2023-03-08T02:42:36;16.43;;;9.07;;
19329;SDS011;9799;48.214;16.388;2023-03-08T02:45:58;14.73;;;8.73;;
19329;SDS011;9799;48.214;16.388;2023-03-08T02:49:19;12.20;;;8.57;;
19329;SDS011;9799;48.214;16.388;2023-03-08T02:52:40;12.47;;;8.63;;
19329;SDS011;9799;48.214;16.388;2023-03-08T02:56:01;15.70;;;9.40;;
19329;SDS011;9799;48.214;16.388;2023-03-08T02:59:24;13.80;;;8.47;;
19329;SDS011;9799;48.214;16.388;2023-03-08T03:02:45;13.70;;;9.23;;
19329;SDS011;9799;48.214;16.388;2023-03-08T03:06:11;13.73;;;10.07;;
19329;SDS011;9799;48.214;16.388;2023-03-08T03:09:33;15.43;;;9.13;;
19329;SDS011;9799;48.214;16.388;2023-03-08T03:12:55;13.73;;;9.00;;
19329;SDS011;9799;48.214;16.388;2023-03-08T03:16:17;12.27;;;9.00;;
19329;SDS011;9799;48.214;16.388;2023-03-08T03:19:39;15.87;;;10.07;;
19329;SDS011;9799;48.214;16.388;2023-03-08T03:23:00;13.43;;;9.80;;
19329;SDS011;9799;48.214;16.388;2023-03-08T03:26:23;13.47;;;9.80;;
19329;SDS011;9799;48.214;16.388;2023-03-08T03:29:45;16.30;;;10.27;;
19329;SDS011;9799;48.214;16.388;2023-03-08T03:33:08;12.60;;;9.43;;
19329;SDS011;9799;48.214;16.388;2023-03-08T03:36:29;14.67;;;9.93;;
19329;SDS011;9799;48.214;16.388;2023-03-08T03:39:50;14.20;;;10.53;;
19329;SDS011;9799;48.214;16.388;2023-03-08T03:43:11;16.50;;;10.23;;
19329;SDS011;9799;48.214;16.388;2023-03-08T03:46:32;17.10;;;10.80;;
19329;SDS011;9799;48.214;16.388;2023-03-08T03:49:55;18.63;;;10.80;;
19329;SDS011;9799;48.214;16.388;2023-03-08T03:53:16;17.47;;;10.63;;
19329;SDS011;9799;48.214;16.388;2023-03-08T03:56:37;21.80;;;10.10;;
19329;SDS011;9799;48.214;16.388;2023-03-08T03:59:58;13.60;;;9.30;;
19329;SDS011;9799;48.214;16.388;2023-03-08T04:03:20;13.07;;;9.10;;
19329;SDS011;9799;48.214;16.388;2023-03-08T04:06:42;16.73;;;8.93;;
19329;SDS011;9799;48.214;16.388;2023-03-08T04:10:04;14.80;;;8.40;;
19329;SDS011;9799;48.214;16.388;2023-03-08T04:13:26;13.20;;;9.20;;
19329;SDS011;9799;48.214;16.388;2023-03-08T04:16:47;18.23;;;10.10;;
19329;SDS011;9799;48.214;16.388;2023-03-08T04:20:09;13.97;;;10.47;;
19329;SDS011;9799;48.214;16.388;2023-03-08T04:23:33;14.53;;;9.83;;
19329;SDS011;9799;48.214;16.388;2023-03-08T04:26:55;14.70;;;10.17;;
19329;SDS011;9799;48.214;16.388;2023-03-08T04:30:16;14.90;;;9.30;;
19329;SDS011;9799;48.214;16.388;2023-03-08T04:33:38;12.77;;;9.50;;
19329;SDS011;9799;48.214;16.388;2023-03-08T04:36:59;13.77;;;9.67;;
19329;SDS011;9799;48.214;16.388;2023-03-08T04:40:22;14.53;;;10.10;;
19329;SDS011;9799;48.214;16.388;2023-03-08T04:43:43;13.00;;;9.80;;
19329;SDS011;9799;48.214;16.388;2023-03-08T04:47:07;15.43;;;10.10;;
19329;SDS011;9799;48.214;16.388;2023-03-08T04:50:28;15.83;;;10.30;;
19329;SDS011;9799;48.214;16.388;2023-03-08T04:53:49;13.40;;;9.57;;
19329;SDS011;9799;48.214;16.388;2023-03-08T04:57:11;14.63;;;9.77;;
19329;SDS011;9799;48.214;16.388;2023-03-08T05:00:33;14.37;;;10.60;;
19329;SDS011;9799;48.214;16.388;2023-03-08T05:03:54;19.43;;;10.97;;
19329;SDS011;9799;48.214;16.388;2023-03-08T05:07:15;14.73;;;9.90;;
19329;SDS011;9799;48.214;16.388;2023-03-08T05:10:36;15.30;;;10.23;;
19329;SDS011;9799;48.214;16.388;2023-03-08T05:13:59;15.40;;;10.83;;
19329;SDS011;9799;48.214;16.388;2023-03-08T05:17:20;14.77;;;10.30;;
19329;SDS011;9799;48.214;16.388;2023-03-08T05:20:42;15.30;;;10.63;;
19329;SDS011;9799;48.214;16.388;2023-03-08T05:24:03;17.33;;;10.80;;
19329;SDS011;9799;48.214;16.388;2023-03-08T05:27:25;22.47;;;11.30;;
19329;SDS011;9799;48.214;16.388;2023-03-08T05:30:47;18.60;;;12.00;;
19329;SDS011;9799;48.214;16.388;2023-03-08T05:34:09;15.70;;;10.80;;
19329;SDS011;9799;48.214;16.388;2023-03-08T05:37:30;15.93;;;10.30;;
19329;SDS011;9799;48.214;16.388;2023-03-08T05:40:52;14.70;;;11.43;;
19329;SDS011;9799;48.214;16.388;2023-03-08T05:44:13;17.40;;;10.93;;
19329;SDS011;9799;48.214;16.388;2023-03-08T05:47:36;15.70;;;11.03;;
19329;SDS011;9799;48.214;16.388;2023-03-08T05:50:57;20.60;;;12.57;;
19329;SDS011;9799;48.214;16.388;2023-03-08T05:54:18;12.60;;;10.53;;
19329;SDS011;9799;48.214;16.388;2023-03-08T05:57:40;13.97;;;10.70;;
19329;SDS011;9799;48.214;16.388;2023-03-08T06:01:07;17.73;;;11.13;;
19329;SDS011;9799;48.214;16.388;2023-03-08T06:04:30;15.07;;;10.70;;
19329;SDS011;9799;48.214;16.388;2023-03-08T06:07:52;17.77;;;11.13;;
19329;SDS011;9799;48.214;16.388;2023-03-08T06:11:13;21.13;;;10.83;;
19329;SDS011;9799;48.214;16.388;2023-03-08T06:14:34;16.30;;;11.47;;
19329;SDS011;9799;48.214;16.388;2023-03-08T06:17:55;17.13;;;11.47;;
19329;SDS011;9799;48.214;16.388;2023-03-08T06:21:18;16.07;;;10.70;;
19329;SDS011;9799;48.214;16.388;2023-03-08T06:24:41;15.13;;;10.77;;
19329;SDS011;9799;48.214;16.388;2023-03-08T06:28:02;16.70;;;10.87;;
19329;SDS011;9799;48.214;16.388;2023-03-08T06:31:23;14.83;;;10.97;;
19329;SDS011;9799;48.214;16.388;2023-03-08T06:34:45;17.00;;;11.17;;
19329;SDS011;9799;48.214;16.388;2023-03-08T06:38:07;18.20;;;11.20;;
19329;SDS011;9799;48.214;16.388;2023-03-08T06:41:29;16.47;;;11.13;;
19329;SDS011;9799;48.214;16.388;2023-03-08T06:44:50;21.27;;;10.80;;
19329;SDS011;9799;48.214;16.388;2023-03-08T06:48:11;15.03;;;10.00;;
19329;SDS011;9799;48.214;16.388;2023-03-08T06:51:32;14.00;;;10.53;;
19329;SDS011;9799;48.214;16.388;2023-03-08T06:54:55;16.03;;;10.07;;
19329;SDS011;9799;48.214;16.388;2023-03-08T06:58:16;14.63;;;10.57;;
19329;SDS011;9799;48.214;16.388;2023-03-08T07:01:37;16.33;;;10.03;;
19329;SDS011;9799;48.214;16.388;2023-03-08T07:04:58;13.57;;;9.13;;
19329;SDS011;9799;48.214;16.388;2023-03-08T07:08:20;18.67;;;9.33;;
19329;SDS011;9799;48.214;16.388;2023-03-08T07:11:42;14.63;;;9.83;;
19329;SDS011;9799;48.214;16.388;2023-03-08T07:15:04;16.27;;;10.53;;
19329;SDS011;9799;48.214;16.388;2023-03-08T07:18:26;19.40;;;10.33;;
19329;SDS011;9799;48.214;16.388;2023-03-08T07:21:47;16.67;;;9.23;;
19329;SDS011;9799;48.214;16.388;2023-03-08T07:25:09;13.67;;;9.97;;
19329;SDS011;9799;48.214;16.388;2023-03-08T07:28:32;13.83;;;9.13;;
19329;SDS011;9799;48.214;16.388;2023-03-08T07:31:53;14.73;;;10.37;;
19329;SDS011;9799;48.214;16.388;2023-03-08T07:35:15;12.60;;;9.13;;
19329;SDS011;9799;48.214;16.388;2023-03-08T07:38:36;19.90;;;10.23;;
19329;SDS011;9799;48.214;16.388;2023-03-08T07:41:57;15.27;;;10.57;;
19329;SDS011;9799;48.214;16.388;2023-03-08T07:45:20;15.30;;;9.10;;
19329;SDS011;9799;48.214;16.388;2023-03-08T07:48:41;14.07;;;10.03;;
19329;SDS011;9799;48.214;16.388;2023-03-08T07:52:03;16.20;;;9.00;;
19329;SDS011;9799;48.214;16.388;2023-03-08T07:55:24;16.33;;;9.13;;
19329;SDS011;9799;48.214;16.388;2023-03-08T07:58:46;11.90;;;8.27;;
19329;SDS011;9799;48.214;16.388;2023-03-08T08:02:09;10.93;;;7.27;;
19329;SDS011;9799;48.214;16.388;2023-03-08T08:05:33;10.23;;;7.27;;
19329;SDS011;9799;48.214;16.388;2023-03-08T08:08:55;10.60;;;7.17;;
19329;SDS011;9799;48.214;16.388;2023-03-08T08:12:16;15.77;;;6.77;;
19329;SDS011;9799;48.214;16.388;2023-03-08T08:15:38;8.67;;;6.67;;
19329;SDS011;9799;48.214;16.388;2023-03-08T08:19:00;9.47;;;6.87;;
19329;SDS011;9799;48.214;16.388;2023-03-08T08:22:21;10.50;;;6.83;;
19329;SDS011;9799;48.214;16.388;2023-03-08T08:25:42;9.93;;;6.57;;
19329;SDS011;9799;48.214;16.388;2023-03-08T08:29:06;10.87;;;6.17;;
19329;SDS011;9799;48.214;16.388;2023-03-08T08:32:27;9.57;;;6.10;;
19329;SDS011;9799;48.214;16.388;2023-03-08T08:35:50;9.77;;;5.73;;
19329;SDS011;9799;48.214;16.388;2023-03-08T08:39:11;9.07;;;6.03;;
19329;SDS011;9799;48.214;16.388;2023-03-08T08:42:32;8.27;;;5.77;;
19329;SDS011;9799;48.214;16.388;2023-03-08T08:45:54;7.60;;;5.50;;
19329;SDS011;9799;48.214;16.388;2023-03-08T08:49:17;7.20;;;5.40;;
19329;SDS011;9799;48.214;16.388;2023-03-08T08:52:39;7.20;;;5.27;;
19329;SDS011;9799;48.214;16.388;2023-03-08T08:56:08;5.67;;;4.87;;
19329;SDS011;9799;48.214;16.388;2023-03-08T08:59:33;7.23;;;4.57;;
19329;SDS011;9799;48.214;16.388;2023-03-08T09:02:54;8.00;;;5.00;;
19329;SDS011;9799;48.214;16.388;2023-03-08T09:06:16;8.43;;;5.67;;
19329;SDS011;9799;48.214;16.388;2023-03-08T09:09:40;7.40;;;5.83;;
19329;SDS011;9799;48.214;16.388;2023-03-08T09:13:01;10.07;;;5.13;;
19329;SDS011;9799;48.214;16.388;2023-03-08T09:16:23;6.83;;;5.17;;
19329;SDS011;9799;48.214;16.388;2023-03-08T09:19:45;11.30;;;5.63;;
19329;SDS011;9799;48.214;16.388;2023-03-08T09:23:07;9.50;;;5.77;;
19329;SDS011;9799;48.214;16.388;2023-03-08T09:26:30;10.33;;;5.77;;
19329;SDS011;9799;48.214;16.388;2023-03-08T09:29:51;8.23;;;6.03;;
19329;SDS011;9799;48.214;16.388;2023-03-08T09:33:12;10.23;;;5.77;;
19329;SDS011;9799;48.214;16.388;2023-03-08T09:36:34;9.50;;;6.07;;
19329;SDS011;9799;48.214;16.388;2023-03-08T09:39:57;7.47;;;5.57;;
19329;SDS011;9799;48.214;16.388;2023-03-08T09:43:22;8.43;;;6.37;;
19329;SDS011;9799;48.214;16.388;2023-03-08T09:46:52;8.73;;;6.57;;
19329;SDS011;9799;48.214;16.388;2023-03-08T09:50:20;8.10;;;5.87;;
19329;SDS011;9799;48.214;16.388;2023-03-08T09:53:52;11.03;;;6.40;;
19329;SDS011;9799;48.214;16.388;2023-03-08T09:57:21;7.77;;;6.33;;
19329;SDS011;9799;48.214;16.388;2023-03-08T10:00:45;12.80;;;6.77;;
19329;SDS011;9799;48.214;16.388;2023-03-08T10:04:13;11.80;;;6.57;;
19329;SDS011;9799;48.214;16.388;2023-03-08T10:07:56;8.63;;;6.43;;
19329;SDS011;9799;48.214;16.388;2023-03-08T10:11:25;11.33;;;7.20;;
19329;SDS011;9799;48.214;16.388;2023-03-08T10:14:51;13.33;;;7.27;;
19329;SDS011;9799;48.214;16.388;2023-03-08T10:18:20;10.27;;;7.30;;
19329;SDS011;9799;48.214;16.388;2023-03-08T10:21:49;8.73;;;6.37;;
19329;SDS011;9799;48.214;16.388;2023-03-08T10:25:15;9.43;;;6.33;;
19329;SDS011;9799;48.214;16.388;2023-03-08T10:28:41;11.13;;;5.93;;
19329;SDS011;9799;48.214;16.388;2023-03-08T10:32:02;10.90;;;6.00;;
19329;SDS011;9799;48.214;16.388;2023-03-08T10:35:32;7.47;;;6.00;;
19329;SDS011;9799;48.214;16.388;2023-03-08T10:38:57;16.23;;;7.97;;
19329;SDS011;9799;48.214;16.388;2023-03-08T10:42:20;11.77;;;7.57;;
19329;SDS011;9799;48.214;16.388;2023-03-08T10:45:44;11.57;;;8.27;;
19329;SDS011;9799;48.214;16.388;2023-03-08T10:49:16;10.77;;;8.37;;
19329;SDS011;9799;48.214;16.388;2023-03-08T10:52:40;16.40;;;10.50;;
19329;SDS011;9799;48.214;16.388;2023-03-08T10:56:02;15.10;;;9.23;;
19329;SDS011;9799;48.214;16.388;2023-03-08T10:59:38;12.67;;;10.07;;
19329;SDS011;9799;48.214;16.388;2023-03-08T11:03:04;14.77;;;10.33;;
19329;SDS011;9799;48.214;16.388;2023-03-08T11:06:33;18.40;;;11.20;;
19329;SDS011;9799;48.214;16.388;2023-03-08T11:10:08;17.47;;;11.53;;
19329;SDS011;9799;48.214;16.388;2023-03-08T11:13:36;23.87;;;13.27;;
19329;SDS011;9799;48.214;16.388;2023-03-08T11:17:13;18.20;;;13.40;;
19329;SDS011;9799;48.214;16.388;2023-03-08T11:20:39;17.90;;;10.97;;
19329;SDS011;9799;48.214;16.388;2023-03-08T11:24:09;15.80;;;11.17;;
19329;SDS011;9799;48.214;16.388;2023-03-08T11:27:43;17.40;;;12.73;;
19329;SDS011;9799;48.214;16.388;2023-03-08T11:31:16;20.77;;;14.17;;
19329;SDS011;9799;48.214;16.388;2023-03-08T11:38:31;19.53;;;13.27;;
19329;SDS011;9799;48.214;16.388;2023-03-08T11:41:56;19.63;;;13.77;;
19329;SDS011;9799;48.214;16.388;2023-03-08T11:45:25;16.97;;;12.47;;
19329;SDS011;9799;48.214;16.388;2023-03-08T11:49:00;22.10;;;13.90;;
19329;SDS011;9799;48.214;16.388;2023-03-08T11:52:41;20.93;;;15.00;;
19329;SDS011;9799;48.214;16.388;2023-03-08T11:56:12;24.67;;;16.90;;
19329;SDS011;9799;48.214;16.388;2023-03-08T11:59:50;18.00;;;13.33;;
19329;SDS011;9799;48.214;16.388;2023-03-08T12:03:18;20.00;;;14.73;;
19329;SDS011;9799;48.214;16.388;2023-03-08T12:06:43;22.60;;;15.83;;
19329;SDS011;9799;48.214;16.388;2023-03-08T12:10:08;20.73;;;15.07;;
19329;SDS011;9799;48.214;16.388;2023-03-08T12:13:38;23.47;;;15.17;;
19329;SDS011;9799;48.214;16.388;2023-03-08T12:17:03;21.37;;;14.80;;
19329;SDS011;9799;48.214;16.388;2023-03-08T12:20:33;18.90;;;14.40;;
19329;SDS011;9799;48.214;16.388;2023-03-08T12:24:01;25.57;;;14.03;;
19329;SDS011;9799;48.214;16.388;2023-03-08T12:27:35;21.43;;;14.20;;
19329;SDS011;9799;48.214;16.388;2023-03-08T12:31:07;24.03;;;13.60;;
19329;SDS011;9799;48.214;16.388;2023-03-08T12:34:39;20.10;;;14.90;;
19329;SDS011;9799;48.214;16.388;2023-03-08T12:38:04;22.83;;;14.67;;
19329;SDS011;9799;48.214;16.388;2023-03-08T12:41:55;21.63;;;14.63;;
19329;SDS011;9799;48.214;16.388;2023-03-08T12:45:25;21.20;;;15.00;;
19329;SDS011;9799;48.214;16.388;2023-03-08T12:48:49;23.87;;;15.87;;
19329;SDS011;9799;48.214;16.388;2023-03-08T12:52:22;22.87;;;15.17;;
19329;SDS011;9799;48.214;16.388;2023-03-08T12:55:50;26.17;;;15.30;;
19329;SDS011;9799;48.214;16.388;2023-03-08T12:59:33;23.23;;;15.50;;
19329;SDS011;9799;48.214;16.388;2023-03-08T13:02:57;22.03;;;14.97;;
19329;SDS011;9799;48.214;16.388;2023-03-08T13:10:25;23.80;;;15.50;;
19329;SDS011;9799;48.214;16.388;2023-03-08T13:13:53;22.10;;;15.07;;
19329;SDS011;9799;48.214;16.388;2023-03-08T13:17:33;23.20;;;16.03;;
19329;SDS011;9799;48.214;16.388;2023-03-08T13:21:01;20.53;;;15.37;;
19329;SDS011;9799;48.214;16.388;2023-03-08T13:24:40;20.87;;;15.13;;
19329;SDS011;9799;48.214;16.388;2023-03-08T13:28:08;24.30;;;15.27;;
19329;SDS011;9799;48.214;16.388;2023-03-08T13:31:34;21.33;;;14.77;;
19329;SDS011;9799;48.214;16.388;2023-03-08T13:34:57;19.00;;;14.27;;
19329;SDS011;9799;48.214;16.388;2023-03-08T13:38:20;21.97;;;14.50;;
19329;SDS011;9799;48.214;16.388;2023-03-08T13:41:46;19.33;;;14.20;;
19329;SDS011;9799;48.214;16.388;2023-03-08T13:45:08;24.30;;;14.97;;
19329;SDS011;9799;48.214;16.388;2023-03-08T13:48:37;21.43;;;14.70;;
19329;SDS011;9799;48.214;16.388;2023-03-08T13:52:03;20.73;;;14.17;;
19329;SDS011;9799;48.214;16.388;2023-03-08T13:55:33;21.70;;;15.03;;
19329;SDS011;9799;48.214;16.388;2023-03-08T13:58:57;24.27;;;16.53;;
19329;SDS011;9799;48.214;16.388;2023-03-08T14:02:20;23.07;;;14.97;;
19329;SDS011;9799;48.214;16.388;2023-03-08T14:05:44;17.43;;;13.27;;
19329;SDS011;9799;48.214;16.388;2023-03-08T14:09:08;23.03;;;15.60;;
19329;SDS011;9799;48.214;16.388;2023-03-08T14:12:30;17.97;;;13.90;;
19329;SDS011;9799;48.214;16.388;2023-03-08T14:15:53;18.70;;;13.67;;
19329;SDS011;9799;48.214;16.388;2023-03-08T14:19:19;22.27;;;13.90;;
19329;SDS011;9799;48.214;16.388;2023-03-08T14:22:46;125.00;;;26.03;;
19329;SDS011;9799;48.214;16.388;2023-03-08T14:26:22;21.77;;;14.20;;
19329;SDS011;9799;48.214;16.388;2023-03-08T14:29:45;18.27;;;13.63;;
19329;SDS011;9799;48.214;16.388;2023-03-08T14:33:17;19.00;;;12.60;;
19329;SDS011;9799;48.214;16.388;2023-03-08T14:36:43;20.43;;;13.60;;
19329;SDS011;9799;48.214;16.388;2023-03-08T14:43:49;20.40;;;13.10;;
19329;SDS011;9799;48.214;16.388;2023-03-08T14:47:17;17.63;;;12.23;;
19329;SDS011;9799;48.214;16.388;2023-03-08T14:50:50;19.90;;;13.10;;
19329;SDS011;9799;48.214;16.388;2023-03-08T14:54:20;22.40;;;13.20;;
19329;SDS011;9799;48.214;16.388;2023-03-08T14:57:49;22.43;;;13.87;;
19329;SDS011;9799;48.214;16.388;2023-03-08T15:01:21;18.20;;;13.00;;
19329;SDS011;9799;48.214;16.388;2023-03-08T15:04:44;20.43;;;13.07;;
19329;SDS011;9799;48.214;16.388;2023-03-08T15:08:07;22.07;;;13.20;;
19329;SDS011;9799;48.214;16.388;2023-03-08T15:11:31;17.83;;;12.27;;
19329;SDS011;9799;48.214;16.388;2023-03-08T15:14:54;16.60;;;12.10;;
19329;SDS011;9799;48.214;16.388;2023-03-08T15:18:15;21.00;;;13.83;;
19329;SDS011;9799;48.214;16.388;2023-03-08T15:21:36;18.87;;;12.67;;
19329;SDS011;9799;48.214;16.388;2023-03-08T15:24:58;18.67;;;13.00;;
19329;SDS011;9799;48.214;16.388;2023-03-08T15:28:20;19.67;;;13.37;;
19329;SDS011;9799;48.214;16.388;2023-03-08T15:31:43;18.43;;;12.43;;
19329;SDS011;9799;48.214;16.388;2023-03-08T15:35:04;16.27;;;12.43;;
19329;SDS011;9799;48.214;16.388;2023-03-08T15:38:26;19.73;;;12.93;;
19329;SDS011;9799;48.214;16.388;2023-03-08T15:41:47;22.83;;;13.37;;
19329;SDS011;9799;48.214;16.388;2023-03-08T15:45:09;20.37;;;13.40;;
19329;SDS011;9799;48.214;16.388;2023-03-08T15:48:33;21.70;;;13.33;;
19329;SDS011;9799;48.214;16.388;2023-03-08T15:51:54;17.57;;;11.77;;
19329;SDS011;9799;48.214;16.388;2023-03-08T15:55:15;20.90;;;13.17;;
19329;SDS011;9799;48.214;16.388;2023-03-08T15:58:37;26.08;;;20.23;;
19329;SDS011;9799;48.214;16.388;2023-03-08T16:01:58;25.27;;;15.40;;
19329;SDS011;9799;48.214;16.388;2023-03-08T16:05:21;18.67;;;13.77;;
19329;SDS011;9799;48.214;16.388;2023-03-08T16:08:43;20.83;;;13.47;;
19329;SDS011;9799;48.214;16.388;2023-03-08T16:12:04;19.80;;;12.67;;
19329;SDS011;9799;48.214;16.388;2023-03-08T16:15:26;18.23;;;12.60;;
19329;SDS011;9799;48.214;16.388;2023-03-08T16:18:48;17.97;;;12.93;;
19329;SDS011;9799;48.214;16.388;2023-03-08T16:22:10;20.33;;;12.87;;
19329;SDS011;9799;48.214;16.388;2023-03-08T16:25:32;19.67;;;12.87;;
19329;SDS011;9799;48.214;16.388;2023-03-08T16:28:53;19.27;;;13.10;;
19329;SDS011;9799;48.214;16.388;2023-03-08T16:32:15;19.50;;;12.17;;
19329;SDS011;9799;48.214;16.388;2023-03-08T16:35:36;24.10;;;14.03;;
19329;SDS011;9799;48.214;16.388;2023-03-08T16:38:59;24.30;;;13.70;;
19329;SDS011;9799;48.214;16.388;2023-03-08T16:42:20;18.77;;;14.30;;
19329;SDS011;9799;48.214;16.388;2023-03-08T16:45:51;22.37;;;14.27;;
19329;SDS011;9799;48.214;16.388;2023-03-08T16:49:13;21.90;;;14.17;;
19329;SDS011;9799;48.214;16.388;2023-03-08T16:52:35;17.47;;;13.60;;
19329;SDS011;9799;48.214;16.388;2023-03-08T16:55:57;20.00;;;13.67;;
19329;SDS011;9799;48.214;16.388;2023-03-08T16:59:19;22.43;;;14.80;;
19329;SDS011;9799;48.214;16.388;2023-03-08T17:02:40;24.40;;;15.63;;
19329;SDS011;9799;48.214;16.388;2023-03-08T17:06:03;26.93;;;16.17;;
19329;SDS011;9799;48.214;16.388;2023-03-08T17:09:26;25.13;;;15.10;;
19329;SDS011;9799;48.214;16.388;2023-03-08T17:12:49;27.97;;;16.13;;
19329;SDS011;9799;48.214;16.388;2023-03-08T17:16:11;25.97;;;14.33;;
19329;SDS011;9799;48.214;16.388;2023-03-08T17:19:32;22.37;;;16.27;;
19329;SDS011;9799;48.214;16.388;2023-03-08T17:22:54;22.63;;;14.97;;
19329;SDS011;9799;48.214;16.388;2023-03-08T17:26:16;18.80;;;13.43;;
19329;SDS011;9799;48.214;16.388;2023-03-08T17:29:40;27.67;;;16.50;;
19329;SDS011;9799;48.214;16.388;2023-03-08T17:33:02;25.47;;;18.13;;
19329;SDS011;9799;48.214;16.388;2023-03-08T17:36:23;30.20;;;16.20;;
19329;SDS011;9799;48.214;16.388;2023-03-08T17:39:46;27.67;;;17.13;;
19329;SDS011;9799;48.214;16.388;2023-03-08T17:43:11;25.07;;;16.83;;
19329;SDS011;9799;48.214;16.388;2023-03-08T17:46:34;24.67;;;13.17;;
19329;SDS011;9799;48.214;16.388;2023-03-08T17:49:56;17.77;;;12.40;;
19329;SDS011;9799;48.214;16.388;2023-03-08T17:53:18;18.73;;;13.67;;
19329;SDS011;9799;48.214;16.388;2023-03-08T17:56:40;25.43;;;17.67;;
19329;SDS011;9799;48.214;16.388;2023-03-08T18:00:04;25.67;;;16.27;;
19329;SDS011;9799;48.214;16.388;2023-03-08T18:03:31;19.47;;;14.60;;
19329;SDS011;9799;48.214;16.388;2023-03-08T18:06:54;28.97;;;15.93;;
19329;SDS011;9799;48.214;16.388;2023-03-08T18:10:15;22.07;;;15.63;;
19329;SDS011;9799;48.214;16.388;2023-03-08T18:13:37;32.40;;;16.97;;
19329;SDS011;9799;48.214;16.388;2023-03-08T18:16:59;19.30;;;14.57;;
19329;SDS011;9799;48.214;16.388;2023-03-08T18:20:24;22.67;;;15.03;;
19329;SDS011;9799;48.214;16.388;2023-03-08T18:23:48;28.37;;;17.50;;
19329;SDS011;9799;48.214;16.388;2023-03-08T18:27:12;19.50;;;13.93;;
19329;SDS011;9799;48.214;16.388;2023-03-08T18:30:36;21.60;;;15.13;;
19329;SDS011;9799;48.214;16.388;2023-03-08T18:33:59;17.07;;;12.83;;
19329;SDS011;9799;48.214;16.388;2023-03-08T18:37:22;19.30;;;14.53;;
19329;SDS011;9799;48.214;16.388;2023-03-08T18:40:45;33.77;;;23.30;;
19329;SDS011;9799;48.214;16.388;2023-03-08T18:44:06;22.70;;;16.23;;
19329;SDS011;9799;48.214;16.388;2023-03-08T18:47:30;18.93;;;13.33;;
19329;SDS011;9799;48.214;16.388;2023-03-08T18:50:51;17.30;;;12.33;;
19329;SDS011;9799;48.214;16.388;2023-03-08T18:54:15;23.43;;;12.63;;
19329;SDS011;9799;48.214;16.388;2023-03-08T18:57:38;19.93;;;13.30;;
19329;SDS011;9799;48.214;16.388;2023-03-08T19:01:07;23.23;;;13.43;;
19329;SDS011;9799;48.214;16.388;2023-03-08T19:04:36;19.43;;;13.80;;
19329;SDS011;9799;48.214;16.388;2023-03-08T19:07:59;18.93;;;13.27;;
19329;SDS011;9799;48.214;16.388;2023-03-08T19:11:32;18.23;;;12.83;;
19329;SDS011;9799;48.214;16.388;2023-03-08T19:14:54;22.77;;;13.70;;
19329;SDS011;9799;48.214;16.388;2023-03-08T19:18:16;20.53;;;15.30;;
19329;SDS011;9799;48.214;16.388;2023-03-08T19:21:39;25.00;;;15.00;;
19329;SDS011;9799;48.214;16.388;2023-03-08T19:25:04;21.60;;;13.43;;
19329;SDS011;9799;48.214;16.388;2023-03-08T19:28:29;19.50;;;12.33;;
19329;SDS011;9799;48.214;16.388;2023-03-08T19:31:52;19.43;;;12.83;;
19329;SDS011;9799;48.214;16.388;2023-03-08T19:35:15;21.50;;;13.13;;
19329;SDS011;9799;48.214;16.388;2023-03-08T19:38:39;17.27;;;13.70;;
19329;SDS011;9799;48.214;16.388;2023-03-08T19:42:02;15.10;;;11.93;;
19329;SDS011;9799;48.214;16.388;2023-03-08T19:45:26;17.60;;;11.87;;
19329;SDS011;9799;48.214;16.388;2023-03-08T19:48:49;16.63;;;11.83;;
19329;SDS011;9799;48.214;16.388;2023-03-08T19:52:12;17.10;;;11.80;;
19329;SDS011;9799;48.214;16.388;2023-03-08T19:55:35;15.57;;;10.73;;
19329;SDS011;9799;48.214;16.388;2023-03-08T19:58:58;13.50;;;10.43;;
19329;SDS011;9799;48.214;16.388;2023-03-08T20:02:23;19.10;;;11.83;;
19329;SDS011;9799;48.214;16.388;2023-03-08T20:05:46;15.97;;;10.10;;
19329;SDS011;9799;48.214;16.388;2023-03-08T20:09:09;15.63;;;9.03;;
19329;SDS011;9799;48.214;16.388;2023-03-08T20:12:32;14.83;;;10.70;;